Terminal Aerodrome Forecast
Issued by NWS Des Moines, IA

Home | Current Version | Previous Version | Text Only | Print | Product List | Glossary On
Versions: 1 2 3 4 5 6 7 8 9 10 11 12 13 14 15 16 17
000
FTUS43 KDMX 280739 AAA
TAFDSM
TAF AMD
KDSM 280739Z 2808/2906 16014G22KT P6SM FEW050 BKN200
     FM280900 17014G22KT P6SM VCTS BKN050CB
     FM281100 19010G16KT P6SM VCSH OVC050
     FM281500 19015G27KT P6SM BKN150
     FM282300 22013G24KT P6SM VCTS BKN050CB=

USA.gov is the U.S. government's official web portal to all federal, state and local government web resources and services.